aviador You're here:

KQD3 Decoded Metar

in
Report Time2017-07-21 07:57:00
UTC Time2017-07-21 08:38:49
Flight Rules ifr IFR
Wind260° at 12 Gusting to 25 kt
W.Rank260° ranks 14
Current wind is above 260° avg. (6.8)
Visibility3200 m
Phenomena:Haze
Clouds:Few 150 Hf
Expected CloudBase > 10,400 ft AGL from Temp-Dew spread
CeilingNone
Temp42°C
Dew Point16°C (22% RH)
Heat Index43.2°C
AAT39.6°C
QNH1001 hPa
Raw Report
METAR KQD3 210757Z 26012G25KT 230V290 3200 HZ FEW150 42/16 A2955 RMK
SLP003 WND DATA ESTMD T04210157=

Extra information for KQD3:More info

Social comments